createdAt,value
2022-07-28T00:00:34.102Z,62
2022-07-28T00:06:14.618Z,68
2022-07-28T00:11:55.508Z,78
2022-07-28T00:17:35.709Z,76
2022-07-28T00:23:15.924Z,72
2022-07-28T00:28:56.051Z,64
2022-07-28T00:34:42.962Z,72
2022-07-28T00:40:23.273Z,72
2022-07-28T00:51:44.259Z,70
2022-07-28T00:57:24.379Z,64
2022-07-28T01:03:05.939Z,64
2022-07-28T01:08:46.502Z,64
2022-07-28T01:14:26.796Z,76
2022-07-28T01:20:07.188Z,66
2022-07-28T01:25:49.191Z,70
2022-07-28T01:31:30.331Z,58
2022-07-28T01:37:10.854Z,58
2022-07-28T01:42:52.406Z,102
2022-07-28T01:48:33.283Z,66
2022-07-28T01:54:15.897Z,62
2022-07-28T01:59:56.231Z,76
2022-07-28T02:05:36.401Z,74
2022-07-28T02:11:16.584Z,72
2022-07-28T02:16:57.005Z,72
2022-07-28T02:22:37.444Z,64
2022-07-28T02:40:01.251Z,72
2022-07-28T02:45:41.481Z,74
2022-07-28T02:51:21.572Z,76
2022-07-28T02:57:01.978Z,72
2022-07-28T03:02:42.304Z,60
2022-07-28T03:08:22.922Z,64
2022-07-28T03:14:03.095Z,70
2022-07-28T03:19:43.482Z,74
2022-07-28T03:25:23.611Z,74
2022-07-28T03:31:04.788Z,72
2022-07-28T03:36:46.065Z,66
2022-07-28T03:42:26.474Z,70
2022-07-28T03:48:06.841Z,68
2022-07-28T03:58:48.250Z,60
2022-07-28T04:04:28.942Z,70
2022-07-28T04:10:09.570Z,72
2022-07-28T04:15:50.327Z,70
2022-07-28T04:21:30.883Z,70
2022-07-28T04:27:11.591Z,68
2022-07-28T04:32:51.961Z,70
2022-07-28T04:49:57.255Z,66
2022-07-28T04:55:39.156Z,72
2022-07-28T05:01:20.590Z,70
2022-07-28T05:07:13.279Z,60
2022-07-28T05:12:53.797Z,70
2022-07-28T05:18:34.645Z,72
2022-07-28T05:24:17.645Z,68
2022-07-28T05:29:58.256Z,70
2022-07-28T05:35:38.815Z,66
2022-07-28T05:46:38.489Z,114
2022-07-28T05:52:19.154Z,72
2022-07-28T05:57:59.834Z,66
2022-07-28T06:03:43.064Z,70
2022-07-28T06:09:26.959Z,72
2022-07-28T06:15:07.242Z,70
2022-07-28T06:25:51.262Z,93
2022-07-28T06:31:33.097Z,78
2022-07-28T06:37:14.239Z,78
2022-07-28T06:42:55.232Z,84
2022-07-28T06:48:36.138Z,80
2022-07-28T06:54:22.692Z,82
2022-07-28T07:00:06.612Z,50
2022-07-28T07:05:53.420Z,42
2022-07-28T07:17:14.659Z,16
2022-07-28T07:22:54.727Z,26
2022-07-28T07:28:34.624Z,26
2022-07-28T07:34:17.509Z,30
2022-07-28T07:39:58.706Z,16
2022-07-28T07:45:38.544Z,16
2022-07-28T07:51:19.882Z,12
2022-07-28T07:57:00.708Z,12
2022-07-28T08:02:40.856Z,6
2022-07-28T08:08:48.400Z,8
2022-07-28T08:14:28.873Z,6
2022-07-28T08:20:09.365Z,0
2022-07-28T08:25:50.608Z,0
2022-07-28T08:31:41.339Z,0
2022-07-28T08:37:21.570Z,0
2022-07-28T08:43:04.254Z,0
2022-07-28T08:48:47.284Z,0
2022-07-28T08:54:28.940Z,6
2022-07-28T09:05:57.487Z,2
2022-07-28T09:11:37.513Z,0
2022-07-28T09:17:17.794Z,0
2022-07-28T09:22:58.698Z,0
2022-07-28T09:28:38.665Z,6
2022-07-28T09:34:28.806Z,2
2022-07-28T09:40:11.201Z,2
2022-07-28T09:45:51.491Z,2
2022-07-28T09:51:32.772Z,2
2022-07-28T09:57:17.219Z,0
2022-07-28T10:03:03.348Z,0
2022-07-28T10:08:46.431Z,0
2022-07-28T10:14:26.894Z,0
2022-07-28T10:20:19.392Z,0
2022-07-28T10:26:03.023Z,4
2022-07-28T10:31:57.240Z,0
2022-07-28T10:37:37.254Z,0
2022-07-28T10:43:19.769Z,0
2022-07-28T10:49:10.975Z,0
2022-07-28T10:54:56.277Z,0
2022-07-28T11:01:10.584Z,0
2022-07-28T11:07:13.501Z,0
2022-07-28T11:12:55.528Z,0
2022-07-28T11:18:35.886Z,0
2022-07-28T11:24:19.271Z,0
2022-07-28T11:29:59.254Z,0
2022-07-28T11:35:39.524Z,0
2022-07-28T11:41:20.595Z,8
2022-07-28T11:47:01.487Z,0
2022-07-28T11:52:42.292Z,22
2022-07-28T11:58:27.932Z,14
2022-07-28T12:04:10.845Z,6
2022-07-28T12:15:36.010Z,10
2022-07-28T12:21:16.242Z,0
2022-07-28T12:26:57.171Z,2
2022-07-28T12:32:37.482Z,0
2022-07-28T12:38:18.324Z,0
2022-07-28T12:43:58.744Z,4
2022-07-28T12:49:39.671Z,0
2022-07-28T12:55:20.183Z,2
2022-07-28T13:01:01.466Z,0
2022-07-28T13:06:43.038Z,2
2022-07-28T13:12:27.015Z,0
2022-07-28T13:18:12.667Z,8
2022-07-28T13:23:52.383Z,0
2022-07-28T13:29:32.538Z,18
2022-07-28T13:35:21.444Z,0
2022-07-28T13:41:02.540Z,36
2022-07-28T13:46:50.549Z,26
2022-07-28T13:52:37.832Z,16
2022-07-28T13:58:18.471Z,28
2022-07-28T14:03:59.229Z,14
2022-07-28T14:15:20.918Z,28
2022-07-28T14:21:01.135Z,20
2022-07-28T14:26:42.070Z,26
2022-07-28T14:32:22.442Z,0
2022-07-28T14:38:55.126Z,0
2022-07-28T14:44:39.219Z,4
2022-07-28T14:50:19.534Z,30
2022-07-28T14:56:00.948Z,32
2022-07-28T15:01:42.585Z,46
2022-07-28T15:07:23.181Z,40
2022-07-28T15:13:03.954Z,76
2022-07-28T15:18:46.600Z,72
2022-07-28T15:24:28.254Z,22
2022-07-28T15:30:12.131Z,32
2022-07-28T15:36:00.591Z,64
2022-07-28T15:41:41.108Z,72
2022-07-28T15:53:01.670Z,84
2022-07-28T15:58:42.322Z,80
2022-07-28T16:04:24.421Z,78
2022-07-28T16:10:04.678Z,78
2022-07-28T16:15:47.895Z,80
2022-07-28T16:21:28.920Z,78
2022-07-28T16:27:09.135Z,84
2022-07-28T16:32:50.080Z,72
2022-07-28T16:38:31.385Z,70
2022-07-28T16:44:12.970Z,74
2022-07-28T16:49:57.239Z,80
2022-07-28T16:55:37.706Z,74
2022-07-28T17:01:22.820Z,80
2022-07-28T17:07:03.500Z,72
2022-07-28T17:12:50.901Z,80
2022-07-28T17:18:31.216Z,80
2022-07-28T17:24:13.783Z,70
2022-07-28T17:29:57.738Z,78
2022-07-28T17:35:38.485Z,84
2022-07-28T17:41:19.104Z,80
2022-07-28T17:46:59.865Z,82
2022-07-28T17:52:40.359Z,82
2022-07-28T17:58:35.540Z,80
2022-07-28T18:04:18.569Z,80
2022-07-28T18:15:40.627Z,76
2022-07-28T18:21:20.916Z,78
2022-07-28T18:27:03.764Z,82
2022-07-28T18:32:44.478Z,80
2022-07-28T18:38:24.651Z,82
2022-07-28T18:44:04.721Z,70
2022-07-28T18:49:44.949Z,78
2022-07-28T18:55:28.024Z,82
2022-07-28T19:01:14.968Z,76
2022-07-28T19:06:55.521Z,84
2022-07-28T19:12:35.646Z,82
2022-07-28T19:18:15.742Z,78
2022-07-28T19:23:55.811Z,84
2022-07-28T19:29:35.915Z,66
2022-07-28T19:35:18.993Z,76
2022-07-28T19:40:59.240Z,80
2022-07-28T19:46:46.258Z,78
2022-07-28T20:04:06.277Z,76
2022-07-28T20:15:30.327Z,70
2022-07-28T20:21:11.502Z,78
2022-07-28T20:26:55.054Z,74
2022-07-28T20:32:35.474Z,76
2022-07-28T20:38:16.228Z,82
2022-07-28T20:44:31.185Z,64
2022-07-28T20:50:12.599Z,70
2022-07-28T20:55:52.429Z,72
2022-07-28T21:01:33.386Z,66
2022-07-28T21:07:14.092Z,72
2022-07-28T21:12:57.201Z,70
2022-07-28T21:18:39.960Z,68
2022-07-28T21:24:20.205Z,60
2022-07-28T21:30:00.526Z,70
2022-07-28T21:35:43.446Z,70
2022-07-28T21:41:23.755Z,74
2022-07-28T21:52:48.071Z,72
2022-07-28T21:58:28.710Z,68
2022-07-28T22:04:09.566Z,78
2022-07-28T22:09:49.799Z,68
2022-07-28T22:15:29.897Z,72
2022-07-28T22:21:10.027Z,78
2022-07-28T22:26:50.357Z,66
2022-07-28T22:32:30.538Z,80
2022-07-28T22:38:13.198Z,78
2022-07-28T22:43:53.614Z,70
2022-07-28T22:49:34.246Z,68
2022-07-28T22:55:18.575Z,78
2022-07-28T23:01:06.699Z,74
2022-07-28T23:06:47.840Z,66
2022-07-28T23:12:28.224Z,74
2022-07-28T23:18:08.380Z,74
2022-07-28T23:23:49.182Z,66
2022-07-28T23:29:29.475Z,64
2022-07-28T23:35:09.676Z,64
2022-07-28T23:46:35.987Z,74
2022-07-28T23:52:16.622Z,66
2022-07-28T23:57:56.974Z,70
